createdAt,value
2018-05-18T00:01:32.274Z,13.63
2018-05-18T00:04:01.707Z,13.73
2018-05-18T00:06:31.057Z,13.43
2018-05-18T00:09:00.398Z,13.37
2018-05-18T00:11:29.903Z,14.07
2018-05-18T00:13:59.378Z,13.97
2018-05-18T00:16:28.793Z,14.37
2018-05-18T00:18:58.232Z,14.13
2018-05-18T00:21:27.844Z,13.87
2018-05-18T00:23:57.413Z,13.30
2018-05-18T00:26:26.854Z,14.30
2018-05-18T00:28:56.217Z,14.87
2018-05-18T00:31:25.627Z,15.07
2018-05-18T00:33:55.119Z,14.87
2018-05-18T00:36:24.479Z,15.63
2018-05-18T00:38:55.950Z,16.17
2018-05-18T00:41:26.332Z,13.83
2018-05-18T00:43:56.340Z,15.27
2018-05-18T00:46:27.224Z,14.73
2018-05-18T07:32:18.450Z,14.33
2018-05-18T07:34:48.387Z,11.37
2018-05-18T07:37:18.001Z,18.70
2018-05-18T07:39:47.722Z,17.97
2018-05-18T07:42:18.306Z,18.87
2018-05-18T07:44:47.712Z,19.37
2018-05-18T07:47:17.210Z,18.03
2018-05-18T07:49:46.769Z,17.57
2018-05-18T07:52:16.177Z,16.43
2018-05-18T07:54:46.696Z,19.47
2018-05-18T07:57:16.043Z,17.77
2018-05-18T07:59:45.321Z,16.50
2018-05-18T08:02:14.668Z,18.03
2018-05-18T08:04:45.074Z,19.77
2018-05-18T08:07:14.380Z,17.93
2018-05-18T08:09:43.819Z,16.33
2018-05-18T08:12:13.325Z,15.73
2018-05-18T08:14:42.859Z,16.20
2018-05-18T08:17:12.382Z,17.57
2018-05-18T08:19:41.802Z,18.20
2018-05-18T08:22:11.171Z,15.93
2018-05-18T08:24:40.609Z,19.10
2018-05-18T08:27:19.543Z,18.57
2018-05-18T08:29:49.032Z,18.10
2018-05-18T08:32:18.177Z,17.33
2018-05-18T08:34:47.686Z,16.83
2018-05-18T08:37:17.332Z,18.53
2018-05-18T08:39:46.761Z,13.17
2018-05-18T08:42:16.078Z,15.53
2018-05-18T08:44:45.677Z,17.90
2018-05-18T08:47:15.315Z,18.53
2018-05-18T08:49:44.609Z,15.73
2018-05-18T08:52:13.972Z,14.83
2018-05-18T08:54:43.535Z,14.37
2018-05-18T08:57:12.905Z,13.47
2018-05-18T08:59:42.285Z,17.50
2018-05-18T09:02:11.617Z,16.67
2018-05-18T09:04:40.766Z,12.97
2018-05-18T09:07:10.325Z,16.37
2018-05-18T09:09:39.746Z,17.33
2018-05-18T09:12:09.287Z,15.63
2018-05-18T09:14:38.820Z,16.17
2018-05-18T09:17:09.193Z,15.93
2018-05-18T09:19:38.672Z,16.30
2018-05-18T09:22:08.221Z,18.70
2018-05-18T09:24:37.633Z,17.33
2018-05-18T09:27:07.091Z,16.73
2018-05-18T09:29:37.556Z,15.23
2018-05-18T09:32:06.944Z,15.83
2018-05-18T09:34:36.440Z,17.23
2018-05-18T09:37:06.076Z,16.73
2018-05-18T09:39:35.499Z,17.37
2018-05-18T09:42:04.919Z,15.20
2018-05-18T09:44:34.413Z,17.37
2018-05-18T09:47:03.781Z,16.27
2018-05-18T09:49:33.249Z,14.07
2018-05-18T09:52:02.831Z,15.70
2018-05-18T09:54:32.371Z,15.53
2018-05-18T09:57:01.622Z,18.60
2018-05-18T09:59:31.144Z,21.00
2018-05-18T10:02:00.563Z,16.63
2018-05-18T10:04:29.997Z,16.27
2018-05-18T10:06:59.438Z,15.50
2018-05-18T10:09:28.796Z,18.10
2018-05-18T10:11:58.357Z,16.13
2018-05-18T10:14:27.758Z,16.67
2018-05-18T10:16:57.082Z,16.80
2018-05-18T10:19:26.551Z,16.20
2018-05-18T10:21:55.848Z,16.57
2018-05-18T10:24:25.430Z,16.37
2018-05-18T10:26:54.996Z,16.07
2018-05-18T10:29:24.280Z,16.93
2018-05-18T10:31:53.734Z,14.00
2018-05-18T10:34:23.435Z,17.90
2018-05-18T10:36:52.838Z,13.60
2018-05-18T10:39:22.265Z,18.80
2018-05-18T10:41:51.719Z,16.60
2018-05-18T10:44:21.186Z,15.20
2018-05-18T10:46:50.641Z,17.40
2018-05-18T10:49:20.108Z,14.20
2018-05-18T10:51:49.534Z,15.70
2018-05-18T10:54:19.242Z,16.37
2018-05-18T10:56:48.860Z,16.13
2018-05-18T10:59:18.254Z,15.13
2018-05-18T11:01:47.767Z,16.53
2018-05-18T11:04:17.437Z,14.27
2018-05-18T11:06:46.751Z,15.93
2018-05-18T11:09:16.172Z,15.73
2018-05-18T11:11:45.629Z,14.93
2018-05-18T11:14:15.321Z,15.77
2018-05-18T11:16:44.800Z,15.27
2018-05-18T11:19:14.349Z,15.23
2018-05-18T11:21:43.813Z,15.63
2018-05-18T11:24:13.184Z,16.00
2018-05-18T11:26:42.663Z,16.47
2018-05-18T11:29:11.932Z,14.97
2018-05-18T11:31:41.315Z,14.90
2018-05-18T11:34:10.848Z,15.50
2018-05-18T11:36:40.226Z,14.43
2018-05-18T11:39:09.678Z,14.47
2018-05-18T11:41:39.286Z,15.77
2018-05-18T11:44:08.830Z,13.83
2018-05-18T11:46:38.099Z,14.57
2018-05-18T11:49:07.645Z,15.10
2018-05-18T11:51:37.180Z,15.20
2018-05-18T11:54:06.580Z,13.63
2018-05-18T11:56:36.240Z,13.73
2018-05-18T11:59:05.696Z,14.50
2018-05-18T12:01:35.033Z,14.57
2018-05-18T12:04:04.465Z,14.10
2018-05-18T12:06:33.913Z,14.70
2018-05-18T12:09:03.358Z,13.27
2018-05-18T12:11:32.916Z,14.60
2018-05-18T12:14:02.265Z,15.93
2018-05-18T12:16:31.767Z,15.33
2018-05-18T12:19:01.240Z,16.07
2018-05-18T12:21:30.573Z,15.23
2018-05-18T12:23:59.912Z,15.37
2018-05-18T12:26:29.486Z,14.47
2018-05-18T12:28:58.816Z,14.77
2018-05-18T12:31:28.261Z,14.93
2018-05-18T12:33:57.866Z,16.10
2018-05-18T12:36:27.218Z,15.20
2018-05-18T12:38:56.659Z,15.73
2018-05-18T12:41:26.267Z,14.00
2018-05-18T12:43:55.858Z,16.17
2018-05-18T12:46:25.431Z,16.73
2018-05-18T12:48:54.920Z,17.93
2018-05-18T12:51:24.495Z,16.00
2018-05-18T12:53:53.951Z,15.47
2018-05-18T12:56:23.443Z,16.50
2018-05-18T12:58:52.774Z,16.27
2018-05-18T13:01:22.255Z,15.10
2018-05-18T13:03:51.754Z,15.60
2018-05-18T13:06:21.228Z,14.73
2018-05-18T13:08:50.670Z,15.00
2018-05-18T13:11:20.118Z,15.17
2018-05-18T13:13:49.661Z,14.93
2018-05-18T13:16:19.039Z,15.33
2018-05-18T13:18:48.622Z,15.23
2018-05-18T13:21:18.200Z,14.57
2018-05-18T13:23:47.691Z,13.43
2018-05-18T13:26:17.274Z,13.10
2018-05-18T13:28:46.725Z,12.70
2018-05-18T13:31:16.066Z,14.03
2018-05-18T13:33:45.557Z,13.13
2018-05-18T13:36:14.885Z,14.10
2018-05-18T13:38:44.255Z,13.70
2018-05-18T13:41:13.961Z,14.20
2018-05-18T13:43:43.417Z,13.67
2018-05-18T13:46:12.773Z,13.13
2018-05-18T13:48:42.202Z,13.77
2018-05-18T13:51:11.693Z,13.10
2018-05-18T13:53:41.173Z,13.67
2018-05-18T13:56:10.732Z,14.27
2018-05-18T13:58:40.223Z,14.37
2018-05-18T14:01:09.604Z,14.13
2018-05-18T14:03:39.042Z,13.17
2018-05-18T14:06:08.866Z,14.07
2018-05-18T14:08:38.250Z,14.03
2018-05-18T14:11:07.911Z,13.23
2018-05-18T14:13:37.335Z,13.37
2018-05-18T14:16:07.923Z,13.80
2018-05-18T14:18:37.423Z,14.43
2018-05-18T14:21:06.863Z,14.17
2018-05-18T14:23:36.158Z,15.27
2018-05-18T14:26:05.535Z,14.97
2018-05-18T14:28:34.810Z,14.60
2018-05-18T14:31:04.168Z,13.83
2018-05-18T14:33:33.595Z,13.47
2018-05-18T14:36:03.005Z,13.80
2018-05-18T14:38:32.398Z,14.57
2018-05-18T14:41:01.624Z,12.27
2018-05-18T14:43:31.023Z,14.60
2018-05-18T14:46:01.753Z,15.17
2018-05-18T14:48:31.409Z,13.47
2018-05-18T14:51:00.961Z,10.13
2018-05-18T14:53:30.701Z,11.90
2018-05-18T14:56:00.523Z,13.50
2018-05-18T14:58:30.420Z,14.37
2018-05-18T15:00:59.787Z,12.73
2018-05-18T15:03:29.885Z,12.87
2018-05-18T15:06:00.767Z,13.33
2018-05-18T15:08:30.497Z,13.93
2018-05-18T15:10:59.818Z,12.83
2018-05-18T15:13:29.205Z,11.87
2018-05-18T15:15:58.521Z,12.57
2018-05-18T15:18:27.970Z,12.33
2018-05-18T15:20:57.507Z,13.23
2018-05-18T15:23:26.954Z,11.57
2018-05-18T15:25:56.492Z,12.80
2018-05-18T15:28:25.995Z,12.07
2018-05-18T15:30:55.413Z,11.70
2018-05-18T15:33:24.866Z,11.73
2018-05-18T15:35:54.452Z,12.50
2018-05-18T15:38:23.803Z,12.30
2018-05-18T15:40:53.224Z,11.97
2018-05-18T15:43:22.549Z,13.13
2018-05-18T15:45:51.931Z,13.03
2018-05-18T15:48:21.365Z,12.83
2018-05-18T15:50:50.865Z,13.37
2018-05-18T15:53:20.280Z,12.73
2018-05-18T15:55:49.851Z,11.80
2018-05-18T15:58:19.346Z,11.90
2018-05-18T16:00:48.908Z,13.00
2018-05-18T16:03:20.167Z,12.33
2018-05-18T16:05:49.538Z,12.77
2018-05-18T16:08:19.057Z,12.90
2018-05-18T16:10:48.539Z,12.67
2018-05-18T16:13:17.978Z,12.07
2018-05-18T16:15:47.543Z,13.17
2018-05-18T16:19:30.823Z,13.23
2018-05-18T16:22:00.464Z,15.33
2018-05-18T16:29:57.995Z,14.17
2018-05-18T16:32:46.393Z,14.20
2018-05-18T16:35:19.231Z,15.07
2018-05-18T16:37:48.967Z,14.57
2018-05-18T16:40:19.138Z,14.33
2018-05-18T16:43:15.560Z,15.03
2018-05-18T16:46:14.280Z,15.17
2018-05-18T16:49:17.512Z,14.33
2018-05-18T16:52:11.004Z,6.43
2018-05-18T16:54:46.074Z,8.20
2018-05-18T16:57:18.407Z,6.87
2018-05-18T16:59:50.156Z,5.27
2018-05-18T17:02:21.607Z,5.30
2018-05-18T17:04:52.894Z,4.73
2018-05-18T17:07:23.822Z,4.03
2018-05-18T17:09:54.681Z,4.40
2018-05-18T17:12:25.621Z,4.70
2018-05-18T17:14:56.390Z,4.90
2018-05-18T17:17:27.171Z,4.97
2018-05-18T17:19:57.834Z,4.50
2018-05-18T17:22:28.542Z,5.30
2018-05-18T17:24:59.670Z,5.50
2018-05-18T17:27:30.279Z,4.50
2018-05-18T17:30:00.979Z,5.87
2018-05-18T17:32:31.735Z,5.83
2018-05-18T17:35:02.404Z,6.10
2018-05-18T17:37:32.748Z,9.00
2018-05-18T17:40:03.253Z,7.43
2018-05-18T17:42:33.723Z,6.70
2018-05-18T17:45:04.149Z,7.60
2018-05-18T17:47:34.674Z,6.70
2018-05-18T17:50:05.080Z,6.43
2018-05-18T17:52:35.532Z,6.63
2018-05-18T17:55:06.036Z,6.33
2018-05-18T17:57:36.316Z,17.07
2018-05-18T18:00:06.714Z,10.43
2018-05-18T18:02:37.158Z,8.93
2018-05-18T18:05:07.465Z,7.10
2018-05-18T18:07:37.626Z,7.00
2018-05-18T18:10:08.969Z,8.13
2018-05-18T18:12:39.422Z,7.93
2018-05-18T18:15:09.628Z,8.13
2018-05-18T18:17:39.812Z,7.57
2018-05-18T18:20:10.953Z,7.63
2018-05-18T18:22:41.114Z,11.33
2018-05-18T18:25:10.513Z,7.30
2018-05-18T18:27:39.960Z,7.67
2018-05-18T18:30:09.416Z,12.93
2018-05-18T18:32:38.747Z,10.17
2018-05-18T18:35:08.266Z,8.70
2018-05-18T18:37:38.050Z,14.80
2018-05-18T18:40:07.528Z,8.87
2018-05-18T18:42:37.031Z,10.57
2018-05-18T18:45:06.552Z,11.10
2018-05-18T18:47:37.071Z,13.83
2018-05-18T18:50:06.837Z,14.30
2018-05-18T18:52:36.262Z,22.70
2018-05-18T18:55:06.152Z,26.50
2018-05-18T18:57:36.916Z,21.27
2018-05-18T19:00:06.703Z,33.03
2018-05-18T19:02:37.237Z,36.63
2018-05-18T19:05:07.176Z,30.83
2018-05-18T19:07:36.709Z,31.93
2018-05-18T19:10:07.420Z,29.80
2018-05-18T19:12:37.009Z,29.60
2018-05-18T19:15:06.791Z,29.87
2018-05-18T19:17:36.999Z,28.87
2018-05-18T19:20:06.553Z,29.07
2018-05-18T19:22:36.631Z,29.53
2018-05-18T19:25:06.214Z,29.47
2018-05-18T19:27:35.815Z,32.97
2018-05-18T19:30:05.387Z,34.00
2018-05-18T19:32:34.774Z,28.97
2018-05-18T19:35:04.034Z,27.37
2018-05-18T19:37:33.573Z,28.93
2018-05-18T19:40:02.929Z,30.80
2018-05-18T19:42:32.360Z,32.67
2018-05-18T19:45:01.659Z,30.03
2018-05-18T19:47:30.955Z,28.53
2018-05-18T19:50:00.183Z,28.47
2018-05-18T19:52:29.594Z,28.37
2018-05-18T19:54:59.757Z,28.87
2018-05-18T19:57:29.381Z,28.57
2018-05-18T19:59:58.812Z,26.97
2018-05-18T20:02:28.157Z,25.67
2018-05-18T20:04:57.525Z,26.87
2018-05-18T20:07:26.858Z,26.53
2018-05-18T20:09:56.508Z,25.63
2018-05-18T20:12:25.929Z,25.30
2018-05-18T20:14:55.238Z,24.53
2018-05-18T20:17:24.851Z,25.70
2018-05-18T20:19:54.167Z,24.33
2018-05-18T20:22:23.684Z,24.23
2018-05-18T20:24:53.136Z,24.60
2018-05-18T20:27:22.575Z,24.60
2018-05-18T20:29:52.063Z,21.93
2018-05-18T20:32:21.547Z,22.53
2018-05-18T20:34:50.949Z,23.50
2018-05-18T20:37:20.459Z,23.00
2018-05-18T20:39:49.957Z,22.83
2018-05-18T20:42:19.340Z,24.43
2018-05-18T20:44:48.731Z,22.87
2018-05-18T20:47:18.193Z,22.43
2018-05-18T20:49:47.770Z,22.73
2018-05-18T20:52:17.157Z,23.13
2018-05-18T20:54:46.615Z,21.70
2018-05-18T20:57:16.906Z,21.77
2018-05-18T20:59:46.348Z,20.93
2018-05-18T21:02:15.634Z,22.27
2018-05-18T21:04:47.242Z,23.63
2018-05-18T21:07:16.658Z,22.23
2018-05-18T21:09:45.990Z,22.43
2018-05-18T21:12:15.338Z,21.97
2018-05-18T21:14:44.620Z,21.07
